Time;durP1;ratioP1;P1;durP2;ratioP2;P2;SDS_P1;SDS_P2;PMS_P1;PMS_P2;Temp;Humidity;BMP_temperature;BMP_pressure;BME280_temperature;BME280_humidity;BME280_pressure;Samples;Min_cycle;Max_cycle;Signal;HPM_P1;HPM_P2
2022/04/03 00:00:11;;;;;;;3.70;3.40;;;6.30;99.90;;;;;;4998960;28;20684;-79
2022/04/03 00:02:38;;;;;;;3.60;3.30;;;6.40;99.90;;;;;;4998022;28;20039;-78
2022/04/03 00:05:06;;;;;;;3.70;3.40;;;6.20;99.90;;;;;;4997115;28;20047;-73
2022/04/03 00:07:34;;;;;;;3.60;3.30;;;6.30;99.90;;;;;;4996756;28;20121;-77
2022/04/03 00:10:02;;;;;;;3.60;3.30;;;6.40;99.90;;;;;;4997508;28;20046;-74
2022/04/03 00:12:30;;;;;;;3.53;3.22;;;6.30;99.90;;;;;;4997260;28;20076;-72
2022/04/03 00:14:57;;;;;;;4.63;3.28;;;6.30;99.90;;;;;;4997705;28;20405;-75
2022/04/03 00:17:24;;;;;;;3.60;3.30;;;6.40;99.90;;;;;;4998267;28;20049;-76
2022/04/03 00:19:51;;;;;;;3.50;3.20;;;6.40;99.90;;;;;;4984732;28;20042;-76
2022/04/03 00:22:19;;;;;;;3.50;3.20;;;6.40;99.90;;;;;;4989949;28;20046;-72
2022/04/03 00:24:46;;;;;;;3.40;3.10;;;6.50;99.90;;;;;;4972478;28;20045;-76
2022/04/03 00:27:13;;;;;;;3.40;3.10;;;6.70;99.90;;;;;;4989638;28;20050;-75
2022/04/03 00:29:41;;;;;;;3.72;3.20;;;6.60;99.90;;;;;;4990009;28;20398;-72
2022/04/03 00:32:08;;;;;;;3.50;3.20;;;6.70;99.90;;;;;;4988505;28;20050;-73
2022/04/03 00:34:36;;;;;;;3.40;3.10;;;6.80;99.90;;;;;;4989768;28;20050;-76
2022/04/03 00:37:03;;;;;;;3.65;3.35;;;6.90;99.90;;;;;;4989707;28;20108;-73
2022/04/03 00:39:31;;;;;;;3.30;3.00;;;6.80;99.90;;;;;;4988690;28;20042;-77
2022/04/03 00:41:58;;;;;;;3.50;3.20;;;7.20;99.90;;;;;;4997674;28;20068;-77
2022/04/03 00:44:26;;;;;;;3.40;3.10;;;7.60;99.90;;;;;;5029363;28;20037;-72
2022/04/03 00:46:55;;;;;;;3.92;3.15;;;7.70;99.90;;;;;;5011146;28;20051;-78
2022/04/03 00:49:23;;;;;;;3.40;3.10;;;7.90;99.90;;;;;;5028551;28;20046;-79
2022/04/03 00:51:50;;;;;;;3.40;2.90;;;8.00;99.90;;;;;;5028764;28;20041;-75
2022/04/03 00:54:18;;;;;;;3.17;2.90;;;8.00;99.90;;;;;;5027713;28;20391;-77
2022/04/03 00:56:46;;;;;;;3.30;3.00;;;7.60;99.90;;;;;;5028584;28;20114;-77
2022/04/03 00:59:14;;;;;;;3.50;3.20;;;7.60;99.90;;;;;;5028996;28;20072;-73
2022/04/03 01:01:43;;;;;;;3.30;3.00;;;7.60;99.90;;;;;;5028375;28;20562;-78
2022/04/03 01:04:11;;;;;;;5.10;3.22;;;7.40;99.90;;;;;;5028586;28;20365;-75
2022/04/03 01:06:39;;;;;;;3.53;3.22;;;7.40;99.90;;;;;;5027482;28;20188;-79
2022/04/03 01:09:06;;;;;;;3.83;3.10;;;7.50;99.90;;;;;;5028948;28;20037;-76
2022/04/03 01:11:34;;;;;;;3.20;2.90;;;7.70;99.90;;;;;;5027532;28;20059;-79
2022/04/03 01:14:02;;;;;;;3.30;3.00;;;7.60;99.90;;;;;;5010912;28;20059;-73
2022/04/03 01:16:29;;;;;;;3.70;3.30;;;7.60;99.90;;;;;;5027355;28;20034;-70
2022/04/03 01:18:56;;;;;;;3.80;3.20;;;7.50;99.90;;;;;;5011015;28;20049;-72
2022/04/03 01:21:24;;;;;;;3.35;3.05;;;7.50;99.90;;;;;;5027114;28;20136;-70
2022/04/03 01:23:51;;;;;;;3.40;3.10;;;7.50;99.90;;;;;;5028931;28;20121;-74
2022/04/03 01:26:18;;;;;;;3.30;3.00;;;7.40;99.90;;;;;;5027099;28;20121;-73
2022/04/03 01:28:46;;;;;;;3.60;3.00;;;7.50;99.90;;;;;;5027028;28;20068;-77
2022/04/03 01:31:14;;;;;;;3.20;2.90;;;7.50;99.90;;;;;;5027358;28;20481;-71
2022/04/03 01:33:41;;;;;;;3.40;3.10;;;7.60;99.90;;;;;;5028161;28;20038;-74
2022/04/03 01:36:09;;;;;;;3.40;3.10;;;7.70;99.90;;;;;;5028129;28;20381;-72
2022/04/03 01:38:36;;;;;;;3.42;3.10;;;7.60;99.90;;;;;;5028127;28;20042;-72
2022/04/03 01:41:03;;;;;;;3.65;3.17;;;7.70;99.90;;;;;;5026601;28;20124;-73
2022/04/03 01:43:31;;;;;;;4.43;3.30;;;7.60;99.90;;;;;;5092006;28;20040;-72
2022/04/03 01:45:58;;;;;;;3.53;3.05;;;7.50;99.90;;;;;;5110554;28;20391;-76
2022/04/03 01:48:26;;;;;;;3.20;2.90;;;7.60;99.90;;;;;;5111010;28;20043;-73
2022/04/03 01:50:53;;;;;;;3.55;3.22;;;7.60;99.90;;;;;;5111626;28;20072;-73
2022/04/03 01:53:21;;;;;;;3.40;3.10;;;7.10;99.90;;;;;;5111401;28;20063;-72
2022/04/03 01:56:01;;;;;;;3.30;3.00;;;6.80;99.90;;;;;;5093860;28;20479;-72
2022/04/03 01:58:29;;;;;;;3.75;3.25;;;6.70;99.90;;;;;;5093268;28;20046;-72
2022/04/03 02:00:57;;;;;;;3.40;3.10;;;6.60;99.90;;;;;;5111663;28;20212;-74
2022/04/03 02:03:25;;;;;;;3.45;3.15;;;6.60;99.90;;;;;;5097111;28;20040;-74
2022/04/03 02:05:53;;;;;;;3.97;3.58;;;6.60;99.90;;;;;;5115285;28;20047;-73
2022/04/03 02:08:20;;;;;;;3.70;3.30;;;6.60;99.90;;;;;;5114171;28;20050;-70
2022/04/03 02:10:48;;;;;;;3.40;3.10;;;6.70;99.90;;;;;;5113790;28;20048;-79
2022/04/03 02:13:15;;;;;;;3.40;3.10;;;6.70;99.90;;;;;;5114186;28;20047;-74
2022/04/03 02:15:43;;;;;;;3.20;2.90;;;6.70;99.90;;;;;;5115409;28;20043;-75
2022/04/03 02:18:10;;;;;;;3.67;3.38;;;6.80;99.90;;;;;;5115043;28;20106;-74
2022/04/03 02:20:38;;;;;;;3.42;3.13;;;6.90;99.90;;;;;;5113966;28;20078;-74
2022/04/03 02:23:05;;;;;;;3.30;3.00;;;7.00;99.90;;;;;;5115158;28;20422;-78
2022/04/03 02:25:33;;;;;;;3.55;3.22;;;6.90;99.90;;;;;;5114188;28;20043;-73
2022/04/03 02:28:01;;;;;;;3.13;2.92;;;6.80;99.90;;;;;;5096605;28;20051;-73
2022/04/03 02:30:28;;;;;;;3.38;3.08;;;6.80;99.90;;;;;;5113142;28;20043;-73
2022/04/03 02:32:55;;;;;;;3.47;3.17;;;6.80;99.90;;;;;;5021661;28;20048;-72
2022/04/03 02:35:23;;;;;;;3.50;3.20;;;6.90;99.90;;;;;;5115002;28;20039;-74
2022/04/03 02:37:50;;;;;;;3.40;3.10;;;7.00;99.90;;;;;;5113276;28;20404;-74
2022/04/03 02:40:18;;;;;;;3.20;2.90;;;7.10;99.90;;;;;;5096717;28;20054;-74
2022/04/03 02:42:46;;;;;;;3.30;3.00;;;7.40;99.90;;;;;;5113353;28;20066;-73
2022/04/03 02:45:15;;;;;;;3.40;3.10;;;7.40;99.90;;;;;;5113496;28;20050;-74
2022/04/03 02:47:49;;;;;;;3.42;3.13;;;7.50;99.90;;;;;;5113378;28;20118;-71
2022/04/03 02:50:17;;;;;;;3.42;3.13;;;7.70;99.90;;;;;;5115030;28;20067;-77
2022/04/03 02:52:44;;;;;;;3.60;3.15;;;7.70;99.90;;;;;;5113151;28;20411;-72
2022/04/03 02:55:11;;;;;;;3.63;3.10;;;7.60;99.90;;;;;;5096480;28;20044;-79
2022/04/03 02:57:39;;;;;;;4.07;3.13;;;7.60;99.90;;;;;;5096183;28;20380;-76
2022/04/03 03:00:08;;;;;;;3.25;2.95;;;7.70;99.90;;;;;;5096164;28;20054;-75
2022/04/03 03:02:35;;;;;;;4.18;3.20;;;7.40;99.90;;;;;;5112686;28;20108;-79
2022/04/03 03:05:04;;;;;;;3.30;3.00;;;7.50;99.90;;;;;;5113465;28;20135;-75
2022/04/03 03:07:39;;;;;;;3.35;3.05;;;7.30;99.90;;;;;;5095955;28;20051;-78
2022/04/03 03:10:09;;;;;;;3.35;3.05;;;7.30;99.90;;;;;;5112987;28;20039;-70
2022/04/03 03:12:37;;;;;;;3.92;3.25;;;7.10;99.90;;;;;;5112500;28;20399;-70
2022/04/03 03:15:04;;;;;;;3.38;3.08;;;7.10;99.90;;;;;;5112613;28;20501;-75
2022/04/03 03:17:33;;;;;;;3.50;3.20;;;7.20;99.90;;;;;;5112933;28;20052;-76
2022/04/03 03:20:00;;;;;;;3.47;3.17;;;7.10;99.90;;;;;;5113052;28;20683;-76
2022/04/03 03:22:27;;;;;;;3.40;3.10;;;7.10;99.90;;;;;;5113657;28;20047;-79
2022/04/03 03:24:55;;;;;;;3.40;3.10;;;7.10;99.90;;;;;;5112656;28;20053;-73
2022/04/03 03:27:22;;;;;;;4.00;3.30;;;7.00;99.90;;;;;;5113956;28;20043;-79
2022/04/03 03:29:49;;;;;;;3.60;3.30;;;7.00;99.90;;;;;;5112469;28;20059;-77
2022/04/03 03:32:17;;;;;;;4.10;3.13;;;7.00;99.90;;;;;;5113791;28;20047;-77
2022/04/03 03:34:44;;;;;;;3.42;3.13;;;7.00;99.90;;;;;;5112471;28;20096;-77
2022/04/03 03:37:12;;;;;;;3.00;2.80;;;7.00;99.90;;;;;;5095360;28;20375;-77
2022/04/03 03:39:39;;;;;;;3.85;3.50;;;7.10;99.90;;;;;;5095425;28;20469;-77
2022/04/03 03:42:07;;;;;;;3.53;3.22;;;7.00;99.90;;;;;;5110374;28;20043;-75
2022/04/03 03:44:34;;;;;;;3.40;3.10;;;7.10;99.90;;;;;;5029584;28;20046;-78
2022/04/03 03:47:01;;;;;;;3.63;3.30;;;7.00;99.90;;;;;;5029001;28;20055;-79
2022/04/03 03:49:29;;;;;;;4.13;3.47;;;7.00;99.90;;;;;;5028694;28;20053;-75
2022/04/03 03:51:56;;;;;;;3.67;3.30;;;7.10;99.90;;;;;;5028458;28;20041;-76
2022/04/03 03:54:24;;;;;;;4.22;3.83;;;7.10;99.90;;;;;;5028431;28;20045;-78
2022/04/03 03:56:51;;;;;;;3.60;3.30;;;7.00;99.90;;;;;;5012375;28;20038;-77
2022/04/03 03:59:18;;;;;;;3.55;3.25;;;6.90;99.90;;;;;;5028275;28;20503;-74
2022/04/03 04:01:46;;;;;;;4.32;3.13;;;6.90;99.90;;;;;;5028311;28;20041;-73
2022/04/03 04:04:13;;;;;;;3.35;3.05;;;7.00;99.90;;;;;;5028294;28;20037;-76
2022/04/03 04:06:41;;;;;;;3.97;3.42;;;7.10;99.90;;;;;;5027675;28;20389;-74
2022/04/03 04:09:08;;;;;;;4.95;3.10;;;7.20;99.90;;;;;;5028280;28;20497;-74
2022/04/03 04:11:35;;;;;;;3.40;3.10;;;7.20;99.90;;;;;;5028224;28;20037;-72
2022/04/03 04:14:03;;;;;;;3.33;3.00;;;7.20;99.90;;;;;;5029884;28;20388;-72
2022/04/03 04:16:30;;;;;;;3.20;2.90;;;7.20;99.90;;;;;;5028038;28;20489;-75
2022/04/03 04:18:57;;;;;;;4.13;3.20;;;7.10;99.90;;;;;;5028191;28;20058;-80
2022/04/03 04:21:25;;;;;;;4.47;3.00;;;7.10;99.90;;;;;;5012291;28;20070;-82
2022/04/03 04:23:52;;;;;;;3.80;3.40;;;7.20;99.90;;;;;;5028621;28;20057;-73
2022/04/03 04:26:19;;;;;;;4.25;3.30;;;7.40;99.90;;;;;;5011494;28;20152;-77
2022/04/03 04:28:48;;;;;;;5.63;3.67;;;7.40;99.90;;;;;;5011326;28;20700;-75
2022/04/03 04:31:16;;;;;;;3.90;3.50;;;7.40;99.90;;;;;;5027794;28;20041;-74
2022/04/03 04:33:43;;;;;;;4.03;3.53;;;7.40;99.90;;;;;;5027972;28;20045;-74
2022/04/03 04:36:11;;;;;;;3.80;3.40;;;7.50;99.90;;;;;;5027569;28;20046;-77
2022/04/03 04:38:39;;;;;;;4.93;3.50;;;7.50;99.90;;;;;;5029005;28;20400;-72
2022/04/03 04:41:06;;;;;;;5.40;3.10;;;7.60;99.90;;;;;;5027920;28;20078;-73
2022/04/03 04:43:33;;;;;;;3.40;3.10;;;7.60;99.90;;;;;;5072443;28;20050;-76
2022/04/03 04:46:00;;;;;;;3.70;3.33;;;7.40;99.90;;;;;;5111444;28;20035;-73
2022/04/03 04:48:28;;;;;;;3.72;3.28;;;7.30;99.90;;;;;;5112090;28;20053;-74
2022/04/03 04:50:55;;;;;;;4.50;3.40;;;7.50;99.90;;;;;;5112098;28;20499;-77
2022/04/03 04:53:26;;;;;;;4.50;3.40;;;7.70;99.90;;;;;;5111023;28;20080;-73
2022/04/03 04:55:54;;;;;;;3.58;3.13;;;7.80;99.90;;;;;;5111235;28;20142;-79
2022/04/03 04:58:21;;;;;;;3.38;3.08;;;7.70;99.90;;;;;;5110982;28;20039;-80
2022/04/03 05:00:48;;;;;;;3.85;3.17;;;7.70;99.90;;;;;;5112144;28;20488;-77
2022/04/03 05:03:16;;;;;;;4.22;3.30;;;7.80;99.90;;;;;;5111763;28;20114;-72
2022/04/03 05:05:43;;;;;;;3.83;3.42;;;7.90;99.90;;;;;;5112008;28;20063;-76
2022/04/03 05:08:11;;;;;;;3.70;3.40;;;8.00;99.90;;;;;;5111855;28;20387;-73
2022/04/03 05:10:38;;;;;;;4.00;3.35;;;8.00;99.90;;;;;;5110528;28;20507;-75
2022/04/03 05:13:09;;;;;;;3.60;3.30;;;8.00;99.90;;;;;;5111518;28;20036;-70
2022/04/03 05:15:36;;;;;;;4.82;3.70;;;8.00;99.90;;;;;;5110796;28;20039;-72
2022/04/03 05:18:04;;;;;;;4.00;3.40;;;7.90;99.90;;;;;;5111638;28;20463;-75
2022/04/03 05:20:33;;;;;;;4.15;3.30;;;7.90;99.90;;;;;;5111493;28;20051;-81
2022/04/03 05:23:00;;;;;;;3.50;3.17;;;8.00;99.90;;;;;;5111011;28;20046;-77
2022/04/03 05:25:27;;;;;;;3.55;3.25;;;8.00;99.90;;;;;;5111951;28;20063;-81
2022/04/03 05:27:55;;;;;;;3.50;3.20;;;8.20;99.90;;;;;;5111620;28;20047;-72
2022/04/03 05:30:23;;;;;;;4.03;3.40;;;8.30;99.90;;;;;;5110422;28;20043;-70
2022/04/03 05:32:51;;;;;;;4.15;3.20;;;8.40;99.90;;;;;;5109926;28;20046;-71
2022/04/03 05:35:18;;;;;;;3.80;3.33;;;8.20;99.90;;;;;;5048847;28;20464;-72
2022/04/03 05:37:46;;;;;;;3.70;3.30;;;8.20;99.90;;;;;;4995008;28;20124;-75
2022/04/03 05:40:15;;;;;;;4.82;3.50;;;8.00;99.90;;;;;;5010866;28;20416;-71
2022/04/03 05:42:43;;;;;;;3.70;3.30;;;8.00;99.90;;;;;;5011574;28;20118;-79
2022/04/03 05:45:11;;;;;;;6.05;3.80;;;8.10;99.90;;;;;;5030527;28;20060;-76
2022/04/03 05:47:39;;;;;;;4.65;3.60;;;8.30;99.90;;;;;;5031661;28;20039;-73
2022/04/03 05:50:10;;;;;;;4.43;3.50;;;8.30;99.90;;;;;;5030698;28;20049;-74
2022/04/03 05:52:46;;;;;;;4.68;3.50;;;8.20;99.90;;;;;;5031536;28;20033;-71
2022/04/03 05:55:16;;;;;;;4.95;4.03;;;8.20;99.90;;;;;;5031486;28;20045;-75
2022/04/03 05:57:45;;;;;;;4.70;3.90;;;8.20;99.90;;;;;;5031550;28;20045;-75
2022/04/03 06:00:13;;;;;;;5.28;4.10;;;8.20;99.90;;;;;;5030338;28;20485;-78
2022/04/03 06:03:01;;;;;;;6.18;4.30;;;8.30;99.90;;;;;;5029907;28;20033;-73
2022/04/03 06:05:31;;;;;;;5.50;4.65;;;8.40;99.90;;;;;;5030260;28;20051;-75
2022/04/03 06:08:03;;;;;;;9.13;5.15;;;8.30;99.90;;;;;;5030114;28;20053;-73
2022/04/03 06:10:31;;;;;;;;;;;8.20;99.90;;;;;;5014132;28;20042;-78
2022/04/03 06:13:07;;;;;;;6.05;4.53;;;8.40;99.90;;;;;;5031396;28;19925;-73
2022/04/03 06:15:39;;;;;;;5.60;4.25;;;8.40;99.90;;;;;;5031205;28;20052;-75
2022/04/03 06:18:10;;;;;;;7.75;4.97;;;8.50;99.90;;;;;;5013481;28;20492;-74
2022/04/03 06:20:38;;;;;;;8.23;4.10;;;8.40;99.90;;;;;;5013608;28;20677;-79
2022/04/03 06:23:13;;;;;;;5.68;4.10;;;8.60;99.90;;;;;;5031050;28;20124;-75
2022/04/03 06:25:42;;;;;;;6.25;4.32;;;8.70;99.90;;;;;;5013648;28;20052;-73
2022/04/03 06:28:10;;;;;;;5.72;3.90;;;8.80;99.90;;;;;;5029720;28;20132;-80
2022/04/03 06:30:38;;;;;;;5.43;4.13;;;8.70;99.90;;;;;;5029997;28;20416;-72
2022/04/03 06:33:06;;;;;;;5.18;4.07;;;8.70;99.90;;;;;;5029324;28;20076;-73
2022/04/03 06:35:33;;;;;;;4.50;3.53;;;8.80;99.90;;;;;;5030920;28;20052;-78
2022/04/03 06:38:01;;;;;;;6.05;4.25;;;8.90;99.90;;;;;;5030840;28;20076;-78
2022/04/03 06:40:29;;;;;;;4.97;3.63;;;8.80;99.90;;;;;;5030181;28;20137;-70
2022/04/03 06:42:56;;;;;;;5.40;4.00;;;8.90;99.90;;;;;;5037237;28;20056;-73
2022/04/03 06:45:24;;;;;;;6.95;3.92;;;9.10;99.90;;;;;;5113610;28;20066;-77
2022/04/03 06:47:52;;;;;;;5.63;4.18;;;9.20;99.90;;;;;;5112599;28;20048;-75
2022/04/03 06:50:20;;;;;;;4.95;3.67;;;9.30;99.90;;;;;;5096778;28;20130;-79
2022/04/03 06:52:47;;;;;;;4.55;3.47;;;9.20;99.90;;;;;;5112936;28;20051;-80
2022/04/03 06:55:15;;;;;;;7.75;3.38;;;9.10;99.90;;;;;;5079273;28;20050;-72
2022/04/03 06:57:42;;;;;;;7.00;3.25;;;9.30;99.90;;;;;;5003290;28;20052;-70
2022/04/03 07:00:13;;;;;;;60.00;32.08;;;9.50;99.90;;;;;;4998426;28;20091;-72
2022/04/03 07:02:40;;;;;;;32.95;19.13;;;9.80;99.90;;;;;;4985209;28;20076;-70
2022/04/03 07:05:09;;;;;;;18.50;11.77;;;10.00;99.90;;;;;;4982397;28;20061;-71
2022/04/03 07:07:37;;;;;;;7.85;6.25;;;10.00;99.90;;;;;;5000524;28;20449;-74
2022/04/03 07:10:06;;;;;;;50.45;32.85;;;10.00;99.90;;;;;;5000469;28;20473;-72
2022/04/03 07:12:33;;;;;;;6.55;4.95;;;10.10;99.90;;;;;;4989212;28;20034;-73
2022/04/03 07:15:03;;;;;;;5.10;3.95;;;9.90;99.90;;;;;;4984400;28;20049;-74
2022/04/03 07:17:30;;;;;;;5.40;3.60;;;10.00;99.90;;;;;;4996632;28;20056;-73
2022/04/03 07:20:02;;;;;;;4.97;3.13;;;10.00;99.90;;;;;;4997864;28;20508;-74
2022/04/03 07:22:29;;;;;;;4.90;3.50;;;9.90;99.90;;;;;;4998519;28;20061;-74
2022/04/03 07:24:57;;;;;;;5.70;3.72;;;9.90;99.90;;;;;;4983942;28;20057;-76
2022/04/03 07:27:26;;;;;;;5.45;3.35;;;10.00;99.90;;;;;;4997979;28;20037;-76
2022/04/03 07:29:53;;;;;;;4.88;3.55;;;10.00;99.90;;;;;;4998736;28;20052;-74
2022/04/03 07:32:21;;;;;;;4.03;3.08;;;10.00;99.90;;;;;;4981823;28;20066;-75
2022/04/03 07:34:48;;;;;;;4.30;3.10;;;10.00;99.90;;;;;;4997712;28;20396;-76
2022/04/03 07:37:16;;;;;;;4.50;3.00;;;10.10;99.90;;;;;;4982522;28;20130;-76
2022/04/03 07:39:43;;;;;;;5.35;3.17;;;10.10;99.90;;;;;;4999112;28;20385;-75
2022/04/03 07:42:11;;;;;;;4.82;3.30;;;10.20;99.90;;;;;;4999635;28;20479;-74
2022/04/03 07:44:38;;;;;;;4.80;3.35;;;10.00;99.90;;;;;;5002588;28;20549;-73
2022/04/03 07:47:05;;;;;;;5.75;3.20;;;10.00;99.90;;;;;;4992092;28;20043;-74
2022/04/03 07:49:33;;;;;;;6.63;3.60;;;10.20;99.90;;;;;;4973420;28;20050;-75
2022/04/03 07:52:00;;;;;;;4.75;3.20;;;10.40;99.90;;;;;;4990148;28;20040;-76
2022/04/03 07:54:29;;;;;;;5.00;3.13;;;10.50;99.90;;;;;;4989371;28;20066;-78
2022/04/03 07:56:56;;;;;;;3.13;2.70;;;10.50;99.90;;;;;;4989088;28;20732;-77
2022/04/03 07:59:23;;;;;;;3.50;2.65;;;10.60;99.90;;;;;;4988037;28;20043;-76
2022/04/03 08:01:51;;;;;;;3.65;2.80;;;10.80;99.90;;;;;;4990085;28;20138;-77
2022/04/03 08:04:18;;;;;;;4.30;3.03;;;10.80;99.90;;;;;;4990221;28;20050;-77
2022/04/03 08:06:46;;;;;;;3.83;2.67;;;10.90;99.90;;;;;;4989071;28;20393;-76
2022/04/03 08:09:17;;;;;;;4.28;2.97;;;11.10;99.90;;;;;;4988990;28;20125;-74
2022/04/03 08:11:44;;;;;;;4.10;3.10;;;11.30;99.90;;;;;;4997274;28;20049;-76
2022/04/03 08:14:11;;;;;;;4.32;2.97;;;11.40;99.90;;;;;;4999294;28;20033;-77
2022/04/03 08:16:39;;;;;;;4.03;2.90;;;11.40;99.90;;;;;;4999543;28;20054;-76
2022/04/03 08:19:06;;;;;;;4.13;3.13;;;11.40;99.20;;;;;;4982583;28;20119;-74
2022/04/03 08:21:34;;;;;;;4.43;2.90;;;11.50;98.80;;;;;;4983528;28;20050;-74
2022/04/03 08:24:01;;;;;;;5.10;2.92;;;11.60;98.50;;;;;;4997094;28;20513;-73
2022/04/03 08:26:29;;;;;;;3.85;2.88;;;11.80;97.70;;;;;;4999029;28;20090;-74
2022/04/03 08:28:56;;;;;;;3.90;2.90;;;11.80;97.30;;;;;;4985450;28;20122;-76
2022/04/03 08:31:24;;;;;;;3.38;2.60;;;12.00;96.40;;;;;;5007220;28;20389;-73
2022/04/03 08:33:52;;;;;;;22.15;14.68;;;12.00;94.70;;;;;;5006069;28;20066;-76
2022/04/03 08:36:19;;;;;;;8.18;5.85;;;12.80;99.90;;;;;;4998366;28;20516;-77
2022/04/03 08:38:50;;;;;;;35.30;22.70;;;13.00;95.70;;;;;;5107380;28;20058;-74
2022/04/03 08:41:17;;;;;;;6.05;3.90;;;13.00;96.60;;;;;;5110680;28;20123;-73
2022/04/03 08:43:47;;;;;;;4.28;2.90;;;12.90;93.40;;;;;;5111102;28;20399;-76
2022/04/03 08:46:17;;;;;;;3.78;2.83;;;12.70;92.60;;;;;;5112262;28;20396;-74
2022/04/03 08:48:45;;;;;;;5.20;2.70;;;12.50;91.20;;;;;;5094472;28;20048;-78
2022/04/03 08:51:14;;;;;;;4.68;2.92;;;12.70;91.20;;;;;;5112228;28;20519;-79
2022/04/03 08:53:45;;;;;;;3.35;2.60;;;12.90;90.80;;;;;;5111018;28;20051;-75
2022/04/03 08:56:13;;;;;;;3.63;2.47;;;12.90;90.50;;;;;;5111847;28;20035;-79
2022/04/03 08:58:41;;;;;;;4.32;2.80;;;13.10;88.80;;;;;;5110713;28;20059;-78
2022/04/03 09:01:09;;;;;;;3.47;2.60;;;13.40;90.40;;;;;;5093975;28;20055;-81
2022/04/03 09:03:37;;;;;;;3.58;2.42;;;13.60;89.80;;;;;;5110192;28;20039;-76
2022/04/03 09:06:16;;;;;;;3.40;2.40;;;13.50;84.80;;;;;;5110744;28;20130;-83
2022/04/03 09:08:44;;;;;;;4.28;2.58;;;13.30;89.60;;;;;;5093879;28;20051;-78
2022/04/03 09:11:13;;;;;;;4.32;2.40;;;13.40;85.50;;;;;;5109673;28;20057;-78
2022/04/03 09:13:41;;;;;;;5.70;2.70;;;13.40;85.30;;;;;;5110775;28;20063;-83
2022/04/03 09:16:10;;;;;;;6.10;3.80;;;13.50;82.60;;;;;;5111745;28;20044;-76
2022/04/03 09:18:53;;;;;;;5.55;3.53;;;14.10;82.40;;;;;;5111690;28;20131;-78
2022/04/03 09:21:24;;;;;;;5.85;2.67;;;14.40;81.00;;;;;;5111361;28;20051;-73
2022/04/03 09:24:08;;;;;;;13.82;8.05;;;14.10;79.00;;;;;;5093807;28;20051;-78
2022/04/03 09:26:39;;;;;;;43.65;26.48;;;14.20;79.40;;;;;;5111593;28;20122;-73
2022/04/03 09:29:07;;;;;;;71.35;12.52;;;14.20;80.00;;;;;;5110807;28;20062;-74
2022/04/03 09:31:39;;;;;;;110.95;53.88;;;14.10;82.10;;;;;;5110356;28;20050;-72
2022/04/03 09:34:14;;;;;;;12.27;7.60;;;14.30;75.60;;;;;;5110322;28;20092;-72
2022/04/03 09:36:42;;;;;;;15.15;5.07;;;13.90;71.30;;;;;;5111849;28;20056;-80
2022/04/03 09:39:14;;;;;;;9.68;4.22;;;13.90;72.10;;;;;;5111639;28;20052;-79
2022/04/03 09:42:02;;;;;;;6.10;3.15;;;;;;;;;;5109969;28;20501;-79
2022/04/03 09:44:49;;;;;;;3.60;2.40;;;13.70;70.70;;;;;;5110975;28;20031;-88
2022/04/03 09:47:26;;;;;;;8.73;3.00;;;13.30;70.50;;;;;;5090351;28;20048;-82
2022/04/03 09:49:55;;;;;;;6.53;3.00;;;13.50;76.20;;;;;;5111285;28;20118;-88
2022/04/03 09:52:51;;;;;;;7.13;2.72;;;13.80;74.10;;;;;;5110446;28;20178;-87
2022/04/03 09:55:22;;;;;;;4.78;2.50;;;14.20;75.40;;;;;;5110909;28;20100;-72
2022/04/03 09:58:00;;;;;;;;;;;14.50;76.80;;;;;;5111843;28;20043;-74
2022/04/03 10:00:44;;;;;;;4.15;2.58;;;14.10;76.50;;;;;;5111401;28;19923;-81
2022/04/03 10:03:13;;;;;;;3.38;2.30;;;14.20;73.60;;;;;;5111188;28;20051;-73
2022/04/03 10:05:42;;;;;;;56.22;31.73;;;14.40;76.50;;;;;;5093233;28;20040;-71
2022/04/03 10:08:10;;;;;;;6.82;4.93;;;14.30;73.40;;;;;;5110846;28;20122;-73
2022/04/03 10:10:38;;;;;;;29.60;16.40;;;13.60;66.40;;;;;;5093218;28;20126;-69
2022/04/03 10:13:06;;;;;;;26.80;16.15;;;13.60;70.40;;;;;;5110750;28;20085;-72
2022/04/03 10:15:34;;;;;;;76.78;45.90;;;13.80;70.10;;;;;;5093281;28;20082;-77
2022/04/03 10:18:05;;;;;;;60.65;39.53;;;14.10;71.60;;;;;;5092906;28;20755;-73
2022/04/03 10:20:35;;;;;;;12.18;8.90;;;14.00;69.50;;;;;;5076560;28;20071;-72
2022/04/03 10:23:10;;;;;;;5.90;3.20;;;13.80;69.40;;;;;;5095872;28;20040;-73
2022/04/03 10:25:44;;;;;;;4.88;2.70;;;13.80;68.30;;;;;;5096468;28;20630;-77
2022/04/03 10:28:16;;;;;;;5.50;3.20;;;13.50;69.90;;;;;;5096487;28;20058;-76
2022/04/03 10:30:43;;;;;;;5.40;2.78;;;13.40;68.80;;;;;;5078662;28;20530;-76
2022/04/03 10:33:20;;;;;;;5.70;2.45;;;13.50;68.20;;;;;;5075989;28;20466;-75
2022/04/03 10:36:02;;;;;;;4.10;2.38;;;13.90;68.20;;;;;;5080078;28;20475;-76
2022/04/03 10:38:56;;;;;;;7.75;2.47;;;14.10;68.10;;;;;;5079612;28;20498;-77
2022/04/03 10:41:36;;;;;;;5.35;2.80;;;13.60;71.20;;;;;;5114055;28;20040;-74
2022/04/03 10:44:19;;;;;;;3.90;2.50;;;13.70;72.90;;;;;;5114384;28;20066;-76
2022/04/03 10:47:10;;;;;;;5.03;2.67;;;13.80;74.40;;;;;;5079304;28;20505;-74
2022/04/03 10:49:37;;;;;;;4.00;2.53;;;13.70;76.10;;;;;;5099468;28;20056;-76
2022/04/03 10:52:24;;;;;;;3.25;2.30;;;13.50;76.10;;;;;;5113760;28;20114;-77
2022/04/03 10:54:54;;;;;;;4.03;2.40;;;13.40;78.30;;;;;;5096232;28;20052;-76
2022/04/03 10:57:40;;;;;;;3.78;2.40;;;13.60;77.30;;;;;;5079560;28;20376;-76
2022/04/03 11:00:13;;;;;;;2.35;1.90;;;13.50;73.10;;;;;;5096671;28;20139;-75
2022/04/03 11:02:42;;;;;;;3.30;2.35;;;13.40;72.50;;;;;;5095900;28;20048;-76
2022/04/03 11:05:21;;;;;;;2.42;1.92;;;13.20;73.70;;;;;;5114389;28;20077;-75
2022/04/03 11:07:50;;;;;;;3.47;2.28;;;13.30;75.10;;;;;;5095809;28;20521;-75
2022/04/03 11:10:48;;;;;;;4.10;2.55;;;13.40;76.10;;;;;;5113869;28;20118;-75
2022/04/03 11:13:17;;;;;;;2.15;1.90;;;13.60;75.70;;;;;;5075338;28;20044;-77
2022/04/03 11:15:59;;;;;;;2.50;2.00;;;13.50;71.30;;;;;;5093598;28;20067;-72
2022/04/03 11:18:43;;;;;;;9.20;5.63;;;12.90;71.90;;;;;;5085096;28;20353;-68
2022/04/03 11:21:30;;;;;;;9.15;5.82;;;12.90;71.10;;;;;;5095594;28;20586;-72
2022/04/03 11:24:11;;;;;;;2.67;2.10;;;13.10;71.80;;;;;;5113709;28;20074;-76
2022/04/03 11:26:39;;;;;;;3.72;2.30;;;13.50;71.20;;;;;;5114411;28;20100;-89
2022/04/03 11:29:10;;;;;;;2.70;2.20;;;13.70;69.70;;;;;;5114491;28;20447;-83
2022/04/03 11:31:41;;;;;;;3.20;2.13;;;13.50;68.60;;;;;;5095502;28;20048;-79
2022/04/03 11:34:08;;;;;;;3.70;2.33;;;13.80;68.70;;;;;;5095375;28;20075;-77
2022/04/03 11:36:36;;;;;;;3.38;1.90;;;14.00;68.50;;;;;;5114153;28;20043;-86
2022/04/03 11:39:06;;;;;;;6.32;2.67;;;13.60;66.80;;;;;;5112302;27;20449;-78
2022/04/03 11:41:35;;;;;;;3.92;1.90;;;13.80;67.30;;;;;;5070745;27;20045;-76
2022/04/03 11:44:10;;;;;;;3.83;1.90;;;13.50;67.00;;;;;;5060381;27;20446;-73
2022/04/03 11:46:43;;;;;;;4.65;2.58;;;14.00;68.10;;;;;;5136179;27;20068;-74
2022/04/03 11:49:14;;;;;;;3.95;2.65;;;14.50;66.60;;;;;;5135904;27;20711;-72
2022/04/03 11:51:43;;;;;;;33.88;18.67;;;14.50;65.60;;;;;;5153911;27;20045;-76
2022/04/03 11:54:10;;;;;;;5.97;3.50;;;14.50;64.40;;;;;;5136178;27;20632;-73
2022/04/03 11:56:38;;;;;;;3.70;2.15;;;14.20;65.50;;;;;;5118576;27;20391;-74
2022/04/03 11:59:13;;;;;;;2.13;1.70;;;15.20;65.30;;;;;;5099832;27;20442;-73
2022/04/03 12:01:50;;;;;;;2.58;1.70;;;14.80;65.60;;;;;;5095384;27;20100;-74
2022/04/03 12:04:19;;;;;;;2.35;1.60;;;15.30;63.90;;;;;;5132834;27;20046;-72
2022/04/03 12:06:49;;;;;;;2.65;1.70;;;14.90;63.10;;;;;;5132921;27;20050;-73
2022/04/03 12:09:19;;;;;;;2.90;1.73;;;15.20;63.60;;;;;;5132574;27;20046;-71
2022/04/03 12:11:50;;;;;;;2.95;1.80;;;15.80;62.00;;;;;;5108469;27;20081;-72
2022/04/03 12:14:30;;;;;;;1.73;1.50;;;16.50;60.10;;;;;;5047623;27;20048;-72
2022/04/03 12:17:06;;;;;;;2.55;1.50;;;16.20;59.60;;;;;;5049288;28;20037;-74
2022/04/03 12:19:36;;;;;;;2.95;1.60;;;16.70;58.80;;;;;;5076271;27;20483;-73
2022/04/03 12:22:08;;;;;;;3.95;1.88;;;16.30;59.90;;;;;;5131942;27;20439;-73
2022/04/03 12:24:37;;;;;;;3.42;1.90;;;15.60;61.20;;;;;;5129653;27;20067;-72
2022/04/03 12:27:12;;;;;;;3.42;2.00;;;15.10;63.80;;;;;;5066499;27;20049;-72
2022/04/03 12:30:00;;;;;;;3.70;1.90;;;15.10;63.30;;;;;;5125197;27;20387;-75
2022/04/03 12:32:35;;;;;;;2.95;1.90;;;15.00;65.10;;;;;;5114112;27;20120;-76
2022/04/03 12:35:09;;;;;;;;;;;14.70;64.80;;;;;;5132888;27;20046;-71
2022/04/03 12:37:42;;;;;;;2.15;1.85;;;14.60;63.90;;;;;;5130411;27;19919;-75
2022/04/03 12:40:11;;;;;;;2.33;1.80;;;14.50;63.20;;;;;;5113169;27;20039;-77
2022/04/03 12:42:41;;;;;;;2.42;1.80;;;14.40;63.70;;;;;;5116249;27;20395;-75
2022/04/03 12:45:17;;;;;;;3.15;2.00;;;14.50;64.00;;;;;;5133890;27;20045;-72
2022/04/03 12:48:00;;;;;;;4.93;2.00;;;14.40;63.70;;;;;;5116388;27;20489;-74
2022/04/03 12:50:30;;;;;;;2.63;1.98;;;14.30;64.30;;;;;;5152884;27;20063;-72
2022/04/03 12:53:00;;;;;;;3.60;2.15;;;14.20;64.20;;;;;;5134488;27;20487;-73
2022/04/03 12:55:41;;;;;;;2.80;2.08;;;14.10;65.30;;;;;;5135243;27;20162;-73
2022/04/03 12:58:25;;;;;;;3.10;2.20;;;14.00;66.60;;;;;;5117761;27;20137;-77
2022/04/03 13:01:06;;;;;;;3.38;2.30;;;13.90;67.10;;;;;;5126929;27;20058;-77
2022/04/03 13:03:54;;;;;;;70.40;37.60;;;13.90;67.70;;;;;;5132412;27;20141;-72
2022/04/03 13:06:22;;;;;;;101.93;62.78;;;13.90;68.60;;;;;;5113213;27;20476;-75